sensor_id;sensor_type;location;lat;lon;timestamp;P1;durP1;ratioP1;P2;durP2;ratioP2
19664;SDS011;9980;51.020;7.772;2023-12-07T00:02:03;16.87;;;12.70;;
19664;SDS011;9980;51.020;7.772;2023-12-07T00:04:31;16.23;;;12.00;;
19664;SDS011;9980;51.020;7.772;2023-12-07T00:06:58;18.60;;;14.53;;
19664;SDS011;9980;51.020;7.772;2023-12-07T00:09:25;18.20;;;13.43;;
19664;SDS011;9980;51.020;7.772;2023-12-07T00:11:52;18.17;;;13.23;;
19664;SDS011;9980;51.020;7.772;2023-12-07T00:14:19;15.30;;;11.90;;
19664;SDS011;9980;51.020;7.772;2023-12-07T00:16:46;19.73;;;13.90;;
19664;SDS011;9980;51.020;7.772;2023-12-07T00:19:13;16.80;;;13.17;;
19664;SDS011;9980;51.020;7.772;2023-12-07T00:21:40;17.73;;;13.70;;
19664;SDS011;9980;51.020;7.772;2023-12-07T00:24:07;18.33;;;12.73;;
19664;SDS011;9980;51.020;7.772;2023-12-07T00:26:34;19.27;;;13.03;;
19664;SDS011;9980;51.020;7.772;2023-12-07T00:29:01;19.70;;;13.97;;
19664;SDS011;9980;51.020;7.772;2023-12-07T00:31:28;19.63;;;14.43;;
19664;SDS011;9980;51.020;7.772;2023-12-07T00:33:55;17.23;;;13.50;;
19664;SDS011;9980;51.020;7.772;2023-12-07T00:36:22;18.47;;;13.63;;
19664;SDS011;9980;51.020;7.772;2023-12-07T00:38:49;17.20;;;12.37;;
19664;SDS011;9980;51.020;7.772;2023-12-07T00:41:16;20.17;;;14.73;;
19664;SDS011;9980;51.020;7.772;2023-12-07T00:43:43;20.63;;;14.43;;
19664;SDS011;9980;51.020;7.772;2023-12-07T00:46:10;16.50;;;12.50;;
19664;SDS011;9980;51.020;7.772;2023-12-07T00:48:37;21.00;;;13.40;;
19664;SDS011;9980;51.020;7.772;2023-12-07T00:51:04;21.50;;;14.83;;
19664;SDS011;9980;51.020;7.772;2023-12-07T00:53:32;21.10;;;14.90;;
19664;SDS011;9980;51.020;7.772;2023-12-07T00:55:59;25.25;;;20.05;;
19664;SDS011;9980;51.020;7.772;2023-12-07T00:58:26;22.17;;;16.50;;
19664;SDS011;9980;51.020;7.772;2023-12-07T01:00:53;19.10;;;14.30;;
19664;SDS011;9980;51.020;7.772;2023-12-07T01:03:20;17.97;;;14.00;;
19664;SDS011;9980;51.020;7.772;2023-12-07T01:05:47;22.00;;;16.10;;
19664;SDS011;9980;51.020;7.772;2023-12-07T01:08:14;19.30;;;15.07;;
19664;SDS011;9980;51.020;7.772;2023-12-07T01:10:41;21.10;;;15.60;;
19664;SDS011;9980;51.020;7.772;2023-12-07T01:13:08;20.73;;;15.27;;
19664;SDS011;9980;51.020;7.772;2023-12-07T01:15:35;20.13;;;15.77;;
19664;SDS011;9980;51.020;7.772;2023-12-07T01:18:02;23.50;;;14.80;;
19664;SDS011;9980;51.020;7.772;2023-12-07T01:20:29;17.97;;;13.50;;
19664;SDS011;9980;51.020;7.772;2023-12-07T01:22:56;24.00;;;17.17;;
19664;SDS011;9980;51.020;7.772;2023-12-07T01:25:23;17.93;;;13.80;;
19664;SDS011;9980;51.020;7.772;2023-12-07T01:27:51;23.37;;;14.93;;
19664;SDS011;9980;51.020;7.772;2023-12-07T01:30:17;19.43;;;14.73;;
19664;SDS011;9980;51.020;7.772;2023-12-07T01:32:44;21.40;;;15.30;;
19664;SDS011;9980;51.020;7.772;2023-12-07T01:35:11;20.20;;;15.10;;
19664;SDS011;9980;51.020;7.772;2023-12-07T01:37:38;19.23;;;14.50;;
19664;SDS011;9980;51.020;7.772;2023-12-07T01:40:06;18.47;;;12.97;;
19664;SDS011;9980;51.020;7.772;2023-12-07T01:42:37;14.00;;;10.50;;
19664;SDS011;9980;51.020;7.772;2023-12-07T01:45:05;16.30;;;11.73;;
19664;SDS011;9980;51.020;7.772;2023-12-07T01:47:33;15.20;;;12.23;;
19664;SDS011;9980;51.020;7.772;2023-12-07T01:50:02;17.07;;;11.83;;
19664;SDS011;9980;51.020;7.772;2023-12-07T01:52:31;17.60;;;12.10;;
19664;SDS011;9980;51.020;7.772;2023-12-07T01:55:04;15.00;;;11.70;;
19664;SDS011;9980;51.020;7.772;2023-12-07T01:57:35;12.93;;;11.03;;
19664;SDS011;9980;51.020;7.772;2023-12-07T02:00:03;16.33;;;11.43;;
19664;SDS011;9980;51.020;7.772;2023-12-07T02:02:30;14.57;;;12.27;;
19664;SDS011;9980;51.020;7.772;2023-12-07T02:04:59;14.17;;;11.27;;
19664;SDS011;9980;51.020;7.772;2023-12-07T02:07:27;17.83;;;12.43;;
19664;SDS011;9980;51.020;7.772;2023-12-07T02:09:54;17.33;;;11.27;;
19664;SDS011;9980;51.020;7.772;2023-12-07T02:12:21;14.33;;;11.97;;
19664;SDS011;9980;51.020;7.772;2023-12-07T02:14:49;14.57;;;11.33;;
19664;SDS011;9980;51.020;7.772;2023-12-07T02:20:12;18.63;;;12.73;;
19664;SDS011;9980;51.020;7.772;2023-12-07T02:22:48;15.97;;;12.83;;
19664;SDS011;9980;51.020;7.772;2023-12-07T02:25:26;16.67;;;12.13;;
19664;SDS011;9980;51.020;7.772;2023-12-07T02:28:05;17.10;;;12.47;;
19664;SDS011;9980;51.020;7.772;2023-12-07T02:30:32;19.70;;;13.57;;
19664;SDS011;9980;51.020;7.772;2023-12-07T02:33:00;14.20;;;11.27;;
19664;SDS011;9980;51.020;7.772;2023-12-07T02:35:27;14.60;;;12.37;;
19664;SDS011;9980;51.020;7.772;2023-12-07T02:37:55;16.20;;;13.03;;
19664;SDS011;9980;51.020;7.772;2023-12-07T02:40:24;16.80;;;13.37;;
19664;SDS011;9980;51.020;7.772;2023-12-07T02:42:55;15.53;;;12.83;;
19664;SDS011;9980;51.020;7.772;2023-12-07T02:45:24;19.57;;;13.43;;
19664;SDS011;9980;51.020;7.772;2023-12-07T02:47:52;15.47;;;11.37;;
19664;SDS011;9980;51.020;7.772;2023-12-07T02:50:20;16.30;;;12.53;;
19664;SDS011;9980;51.020;7.772;2023-12-07T02:52:47;17.73;;;12.47;;
19664;SDS011;9980;51.020;7.772;2023-12-07T02:55:14;13.60;;;10.77;;
19664;SDS011;9980;51.020;7.772;2023-12-07T02:57:41;20.07;;;14.60;;
19664;SDS011;9980;51.020;7.772;2023-12-07T03:00:08;16.30;;;13.30;;
19664;SDS011;9980;51.020;7.772;2023-12-07T03:02:38;21.90;;;16.10;;
19664;SDS011;9980;51.020;7.772;2023-12-07T03:05:06;18.90;;;14.67;;
19664;SDS011;9980;51.020;7.772;2023-12-07T03:07:34;20.00;;;14.63;;
19664;SDS011;9980;51.020;7.772;2023-12-07T03:10:01;15.33;;;12.67;;
19664;SDS011;9980;51.020;7.772;2023-12-07T03:12:30;15.83;;;12.63;;
19664;SDS011;9980;51.020;7.772;2023-12-07T03:14:57;18.07;;;13.53;;
19664;SDS011;9980;51.020;7.772;2023-12-07T03:17:24;17.00;;;13.30;;
19664;SDS011;9980;51.020;7.772;2023-12-07T03:19:51;22.17;;;16.63;;
19664;SDS011;9980;51.020;7.772;2023-12-07T03:22:18;21.23;;;15.67;;
19664;SDS011;9980;51.020;7.772;2023-12-07T03:24:49;22.30;;;16.23;;
19664;SDS011;9980;51.020;7.772;2023-12-07T03:27:18;20.13;;;15.13;;
19664;SDS011;9980;51.020;7.772;2023-12-07T03:29:46;17.97;;;13.77;;
19664;SDS011;9980;51.020;7.772;2023-12-07T03:32:12;19.47;;;14.53;;
19664;SDS011;9980;51.020;7.772;2023-12-07T03:34:39;18.90;;;15.00;;
19664;SDS011;9980;51.020;7.772;2023-12-07T03:37:06;18.60;;;13.77;;
19664;SDS011;9980;51.020;7.772;2023-12-07T03:39:33;15.50;;;12.13;;
19664;SDS011;9980;51.020;7.772;2023-12-07T03:42:00;14.70;;;11.93;;
19664;SDS011;9980;51.020;7.772;2023-12-07T03:44:27;16.83;;;12.87;;
19664;SDS011;9980;51.020;7.772;2023-12-07T03:46:54;13.43;;;10.10;;
19664;SDS011;9980;51.020;7.772;2023-12-07T03:49:21;13.20;;;11.30;;
19664;SDS011;9980;51.020;7.772;2023-12-07T03:51:48;15.23;;;11.83;;
19664;SDS011;9980;51.020;7.772;2023-12-07T03:54:16;14.43;;;12.23;;
19664;SDS011;9980;51.020;7.772;2023-12-07T03:56:43;14.07;;;11.40;;
19664;SDS011;9980;51.020;7.772;2023-12-07T03:59:10;13.13;;;11.77;;
19664;SDS011;9980;51.020;7.772;2023-12-07T04:01:37;12.30;;;10.60;;
19664;SDS011;9980;51.020;7.772;2023-12-07T04:04:04;14.40;;;11.20;;
19664;SDS011;9980;51.020;7.772;2023-12-07T04:06:31;17.60;;;12.87;;
19664;SDS011;9980;51.020;7.772;2023-12-07T04:08:58;15.40;;;12.43;;
19664;SDS011;9980;51.020;7.772;2023-12-07T04:11:25;18.57;;;13.53;;
19664;SDS011;9980;51.020;7.772;2023-12-07T04:13:52;16.63;;;12.27;;
19664;SDS011;9980;51.020;7.772;2023-12-07T04:16:19;12.03;;;10.37;;
19664;SDS011;9980;51.020;7.772;2023-12-07T04:18:47;18.70;;;13.23;;
19664;SDS011;9980;51.020;7.772;2023-12-07T04:21:14;16.50;;;12.93;;
19664;SDS011;9980;51.020;7.772;2023-12-07T04:23:41;13.37;;;10.80;;
19664;SDS011;9980;51.020;7.772;2023-12-07T04:26:08;14.43;;;11.80;;
19664;SDS011;9980;51.020;7.772;2023-12-07T04:28:35;13.53;;;10.60;;
19664;SDS011;9980;51.020;7.772;2023-12-07T04:31:02;16.17;;;12.40;;
19664;SDS011;9980;51.020;7.772;2023-12-07T04:33:29;13.67;;;10.90;;
19664;SDS011;9980;51.020;7.772;2023-12-07T04:35:56;17.03;;;12.93;;
19664;SDS011;9980;51.020;7.772;2023-12-07T04:38:23;12.00;;;10.33;;
19664;SDS011;9980;51.020;7.772;2023-12-07T04:40:50;16.00;;;11.73;;
19664;SDS011;9980;51.020;7.772;2023-12-07T04:43:17;17.07;;;12.93;;
19664;SDS011;9980;51.020;7.772;2023-12-07T04:45:50;17.00;;;13.33;;
19664;SDS011;9980;51.020;7.772;2023-12-07T04:48:18;17.17;;;12.60;;
19664;SDS011;9980;51.020;7.772;2023-12-07T04:50:45;14.83;;;12.40;;
19664;SDS011;9980;51.020;7.772;2023-12-07T04:53:12;14.20;;;10.97;;
19664;SDS011;9980;51.020;7.772;2023-12-07T04:55:40;17.80;;;13.30;;
19664;SDS011;9980;51.020;7.772;2023-12-07T04:58:09;13.23;;;11.80;;
19664;SDS011;9980;51.020;7.772;2023-12-07T05:00:36;13.10;;;11.00;;
19664;SDS011;9980;51.020;7.772;2023-12-07T05:03:03;15.23;;;11.43;;
19664;SDS011;9980;51.020;7.772;2023-12-07T05:05:30;19.50;;;14.00;;
19664;SDS011;9980;51.020;7.772;2023-12-07T05:07:57;15.93;;;13.23;;
19664;SDS011;9980;51.020;7.772;2023-12-07T05:10:24;13.67;;;11.53;;
19664;SDS011;9980;51.020;7.772;2023-12-07T05:12:51;12.93;;;11.60;;
19664;SDS011;9980;51.020;7.772;2023-12-07T05:15:18;14.33;;;11.83;;
19664;SDS011;9980;51.020;7.772;2023-12-07T05:17:45;11.77;;;10.53;;
19664;SDS011;9980;51.020;7.772;2023-12-07T05:20:12;13.93;;;10.57;;
19664;SDS011;9980;51.020;7.772;2023-12-07T05:22:39;16.57;;;13.33;;
19664;SDS011;9980;51.020;7.772;2023-12-07T05:25:06;16.43;;;12.13;;
19664;SDS011;9980;51.020;7.772;2023-12-07T05:27:33;26.60;;;17.63;;
19664;SDS011;9980;51.020;7.772;2023-12-07T05:30:00;16.03;;;12.63;;
19664;SDS011;9980;51.020;7.772;2023-12-07T05:32:27;19.80;;;15.67;;
19664;SDS011;9980;51.020;7.772;2023-12-07T05:34:54;14.70;;;12.43;;
19664;SDS011;9980;51.020;7.772;2023-12-07T05:37:21;23.90;;;15.57;;
19664;SDS011;9980;51.020;7.772;2023-12-07T05:39:48;19.30;;;15.70;;
19664;SDS011;9980;51.020;7.772;2023-12-07T05:42:15;25.87;;;17.40;;
19664;SDS011;9980;51.020;7.772;2023-12-07T05:44:42;28.97;;;18.50;;
19664;SDS011;9980;51.020;7.772;2023-12-07T05:47:10;22.27;;;15.87;;
19664;SDS011;9980;51.020;7.772;2023-12-07T05:49:37;19.50;;;14.83;;
19664;SDS011;9980;51.020;7.772;2023-12-07T05:52:04;26.60;;;16.53;;
19664;SDS011;9980;51.020;7.772;2023-12-07T05:54:31;20.47;;;15.07;;
19664;SDS011;9980;51.020;7.772;2023-12-07T05:56:58;22.10;;;16.40;;
19664;SDS011;9980;51.020;7.772;2023-12-07T05:59:26;17.67;;;14.33;;
19664;SDS011;9980;51.020;7.772;2023-12-07T06:01:52;21.03;;;15.87;;
19664;SDS011;9980;51.020;7.772;2023-12-07T06:04:20;22.07;;;17.07;;
19664;SDS011;9980;51.020;7.772;2023-12-07T06:06:47;17.80;;;14.83;;
19664;SDS011;9980;51.020;7.772;2023-12-07T06:09:14;22.53;;;16.40;;
19664;SDS011;9980;51.020;7.772;2023-12-07T06:11:41;19.37;;;14.60;;
19664;SDS011;9980;51.020;7.772;2023-12-07T06:14:08;18.60;;;14.57;;
19664;SDS011;9980;51.020;7.772;2023-12-07T06:16:35;17.87;;;14.23;;
19664;SDS011;9980;51.020;7.772;2023-12-07T06:19:03;21.87;;;16.60;;
19664;SDS011;9980;51.020;7.772;2023-12-07T06:21:30;22.10;;;16.50;;
19664;SDS011;9980;51.020;7.772;2023-12-07T06:23:57;23.63;;;16.87;;
19664;SDS011;9980;51.020;7.772;2023-12-07T06:26:27;21.10;;;15.33;;
19664;SDS011;9980;51.020;7.772;2023-12-07T06:28:54;26.53;;;18.47;;
19664;SDS011;9980;51.020;7.772;2023-12-07T06:31:21;28.07;;;19.23;;
19664;SDS011;9980;51.020;7.772;2023-12-07T06:33:49;33.50;;;23.23;;
19664;SDS011;9980;51.020;7.772;2023-12-07T06:36:22;30.03;;;19.50;;
19664;SDS011;9980;51.020;7.772;2023-12-07T06:38:50;26.60;;;18.47;;
19664;SDS011;9980;51.020;7.772;2023-12-07T06:41:17;30.83;;;19.93;;
19664;SDS011;9980;51.020;7.772;2023-12-07T06:43:46;33.23;;;21.47;;
19664;SDS011;9980;51.020;7.772;2023-12-07T06:46:13;23.77;;;17.07;;
19664;SDS011;9980;51.020;7.772;2023-12-07T06:48:40;29.40;;;19.93;;
19664;SDS011;9980;51.020;7.772;2023-12-07T06:51:08;32.97;;;21.47;;
19664;SDS011;9980;51.020;7.772;2023-12-07T06:53:35;23.97;;;16.77;;
19664;SDS011;9980;51.020;7.772;2023-12-07T06:56:01;29.80;;;20.57;;
19664;SDS011;9980;51.020;7.772;2023-12-07T06:58:29;26.97;;;16.33;;
19664;SDS011;9980;51.020;7.772;2023-12-07T07:00:56;19.07;;;15.33;;
19664;SDS011;9980;51.020;7.772;2023-12-07T07:03:23;22.77;;;16.70;;
19664;SDS011;9980;51.020;7.772;2023-12-07T07:05:51;22.37;;;17.93;;
19664;SDS011;9980;51.020;7.772;2023-12-07T07:08:18;18.00;;;14.00;;
19664;SDS011;9980;51.020;7.772;2023-12-07T07:10:45;18.07;;;13.80;;
19664;SDS011;9980;51.020;7.772;2023-12-07T07:13:15;25.50;;;17.23;;
19664;SDS011;9980;51.020;7.772;2023-12-07T07:15:43;22.23;;;15.73;;
19664;SDS011;9980;51.020;7.772;2023-12-07T07:18:10;18.33;;;13.87;;
19664;SDS011;9980;51.020;7.772;2023-12-07T07:20:38;21.47;;;16.43;;
19664;SDS011;9980;51.020;7.772;2023-12-07T07:23:05;20.17;;;15.30;;
19664;SDS011;9980;51.020;7.772;2023-12-07T07:25:34;18.47;;;14.97;;
19664;SDS011;9980;51.020;7.772;2023-12-07T07:28:01;18.17;;;13.90;;
19664;SDS011;9980;51.020;7.772;2023-12-07T07:30:28;19.57;;;14.87;;
19664;SDS011;9980;51.020;7.772;2023-12-07T07:32:55;18.97;;;14.40;;
19664;SDS011;9980;51.020;7.772;2023-12-07T07:35:22;16.80;;;13.40;;
19664;SDS011;9980;51.020;7.772;2023-12-07T07:37:49;22.57;;;14.67;;
19664;SDS011;9980;51.020;7.772;2023-12-07T07:40:16;19.00;;;15.57;;
19664;SDS011;9980;51.020;7.772;2023-12-07T07:42:43;22.67;;;15.67;;
19664;SDS011;9980;51.020;7.772;2023-12-07T07:45:10;20.27;;;14.57;;
19664;SDS011;9980;51.020;7.772;2023-12-07T07:47:37;20.87;;;15.17;;
19664;SDS011;9980;51.020;7.772;2023-12-07T07:50:04;19.43;;;15.13;;
19664;SDS011;9980;51.020;7.772;2023-12-07T07:52:32;24.57;;;16.13;;
19664;SDS011;9980;51.020;7.772;2023-12-07T07:55:02;22.60;;;15.77;;
19664;SDS011;9980;51.020;7.772;2023-12-07T07:57:31;22.57;;;15.20;;
19664;SDS011;9980;51.020;7.772;2023-12-07T07:59:58;22.87;;;17.30;;
19664;SDS011;9980;51.020;7.772;2023-12-07T08:02:25;25.97;;;16.90;;
19664;SDS011;9980;51.020;7.772;2023-12-07T08:04:52;23.93;;;16.60;;
19664;SDS011;9980;51.020;7.772;2023-12-07T08:07:19;25.93;;;16.57;;
19664;SDS011;9980;51.020;7.772;2023-12-07T08:09:46;22.73;;;16.50;;
19664;SDS011;9980;51.020;7.772;2023-12-07T08:12:13;24.47;;;16.37;;
19664;SDS011;9980;51.020;7.772;2023-12-07T08:14:40;21.47;;;14.53;;
19664;SDS011;9980;51.020;7.772;2023-12-07T08:17:10;20.60;;;16.07;;
19664;SDS011;9980;51.020;7.772;2023-12-07T08:19:38;22.13;;;15.37;;
19664;SDS011;9980;51.020;7.772;2023-12-07T08:22:05;20.30;;;14.53;;
19664;SDS011;9980;51.020;7.772;2023-12-07T08:24:32;18.77;;;14.40;;
19664;SDS011;9980;51.020;7.772;2023-12-07T08:26:59;21.80;;;15.40;;
19664;SDS011;9980;51.020;7.772;2023-12-07T08:29:26;20.70;;;14.77;;
19664;SDS011;9980;51.020;7.772;2023-12-07T08:31:53;23.00;;;15.43;;
19664;SDS011;9980;51.020;7.772;2023-12-07T08:34:20;19.33;;;13.63;;
19664;SDS011;9980;51.020;7.772;2023-12-07T08:36:49;16.77;;;13.47;;
19664;SDS011;9980;51.020;7.772;2023-12-07T08:39:16;23.17;;;14.93;;
19664;SDS011;9980;51.020;7.772;2023-12-07T08:41:43;20.57;;;15.27;;
19664;SDS011;9980;51.020;7.772;2023-12-07T08:44:10;20.00;;;14.30;;
19664;SDS011;9980;51.020;7.772;2023-12-07T08:46:37;20.83;;;16.00;;
19664;SDS011;9980;51.020;7.772;2023-12-07T08:49:04;16.93;;;13.17;;
19664;SDS011;9980;51.020;7.772;2023-12-07T08:51:32;18.90;;;15.13;;
19664;SDS011;9980;51.020;7.772;2023-12-07T08:53:59;19.87;;;14.63;;
19664;SDS011;9980;51.020;7.772;2023-12-07T08:56:26;17.67;;;14.17;;
19664;SDS011;9980;51.020;7.772;2023-12-07T08:58:53;20.70;;;13.97;;
19664;SDS011;9980;51.020;7.772;2023-12-07T09:01:20;17.47;;;13.27;;
19664;SDS011;9980;51.020;7.772;2023-12-07T09:03:57;18.07;;;13.87;;
19664;SDS011;9980;51.020;7.772;2023-12-07T09:06:25;15.80;;;12.40;;
19664;SDS011;9980;51.020;7.772;2023-12-07T09:08:52;13.93;;;12.27;;
19664;SDS011;9980;51.020;7.772;2023-12-07T09:11:19;17.77;;;14.13;;
19664;SDS011;9980;51.020;7.772;2023-12-07T09:13:46;17.47;;;13.40;;
19664;SDS011;9980;51.020;7.772;2023-12-07T09:16:13;17.63;;;13.70;;
19664;SDS011;9980;51.020;7.772;2023-12-07T09:18:41;18.37;;;14.17;;
19664;SDS011;9980;51.020;7.772;2023-12-07T09:21:09;18.63;;;15.33;;
19664;SDS011;9980;51.020;7.772;2023-12-07T09:23:35;16.77;;;13.20;;
19664;SDS011;9980;51.020;7.772;2023-12-07T09:26:03;18.73;;;13.60;;
19664;SDS011;9980;51.020;7.772;2023-12-07T09:28:31;21.07;;;14.13;;
19664;SDS011;9980;51.020;7.772;2023-12-07T09:31:01;18.37;;;13.33;;
19664;SDS011;9980;51.020;7.772;2023-12-07T09:33:28;18.17;;;14.03;;
19664;SDS011;9980;51.020;7.772;2023-12-07T09:35:55;19.00;;;13.73;;
19664;SDS011;9980;51.020;7.772;2023-12-07T09:38:22;17.13;;;13.77;;
19664;SDS011;9980;51.020;7.772;2023-12-07T09:40:52;17.20;;;13.10;;
19664;SDS011;9980;51.020;7.772;2023-12-07T09:43:20;15.93;;;13.07;;
19664;SDS011;9980;51.020;7.772;2023-12-07T09:45:47;17.83;;;13.30;;
19664;SDS011;9980;51.020;7.772;2023-12-07T09:48:15;16.13;;;12.73;;
19664;SDS011;9980;51.020;7.772;2023-12-07T09:50:43;16.73;;;11.60;;
19664;SDS011;9980;51.020;7.772;2023-12-07T09:53:10;15.10;;;12.90;;
19664;SDS011;9980;51.020;7.772;2023-12-07T09:55:37;16.87;;;12.90;;
19664;SDS011;9980;51.020;7.772;2023-12-07T09:58:07;16.20;;;12.27;;
19664;SDS011;9980;51.020;7.772;2023-12-07T10:00:35;15.93;;;12.63;;
19664;SDS011;9980;51.020;7.772;2023-12-07T10:03:03;15.30;;;12.60;;
19664;SDS011;9980;51.020;7.772;2023-12-07T10:05:54;16.23;;;12.43;;
19664;SDS011;9980;51.020;7.772;2023-12-07T10:08:27;14.73;;;12.07;;
19664;SDS011;9980;51.020;7.772;2023-12-07T10:11:06;14.80;;;12.20;;
19664;SDS011;9980;51.020;7.772;2023-12-07T10:13:35;15.00;;;13.27;;
19664;SDS011;9980;51.020;7.772;2023-12-07T10:16:08;16.07;;;13.50;;
19664;SDS011;9980;51.020;7.772;2023-12-07T10:18:43;18.50;;;14.30;;
19664;SDS011;9980;51.020;7.772;2023-12-07T10:21:11;19.97;;;14.00;;
19664;SDS011;9980;51.020;7.772;2023-12-07T10:23:41;19.47;;;14.67;;
19664;SDS011;9980;51.020;7.772;2023-12-07T10:26:10;20.27;;;14.50;;
19664;SDS011;9980;51.020;7.772;2023-12-07T10:28:37;18.30;;;14.17;;
19664;SDS011;9980;51.020;7.772;2023-12-07T10:31:09;18.37;;;13.57;;
19664;SDS011;9980;51.020;7.772;2023-12-07T10:33:37;18.10;;;14.77;;
19664;SDS011;9980;51.020;7.772;2023-12-07T10:36:04;18.83;;;13.80;;
19664;SDS011;9980;51.020;7.772;2023-12-07T10:38:32;17.73;;;13.97;;
19664;SDS011;9980;51.020;7.772;2023-12-07T10:41:09;17.50;;;13.47;;
19664;SDS011;9980;51.020;7.772;2023-12-07T10:43:40;16.43;;;12.67;;
19664;SDS011;9980;51.020;7.772;2023-12-07T10:46:12;17.53;;;13.23;;
19664;SDS011;9980;51.020;7.772;2023-12-07T10:48:44;20.77;;;13.43;;
19664;SDS011;9980;51.020;7.772;2023-12-07T10:51:23;17.17;;;12.17;;
19664;SDS011;9980;51.020;7.772;2023-12-07T10:54:05;16.00;;;13.00;;
19664;SDS011;9980;51.020;7.772;2023-12-07T10:56:38;14.20;;;12.17;;
19664;SDS011;9980;51.020;7.772;2023-12-07T10:59:10;13.87;;;11.63;;
19664;SDS011;9980;51.020;7.772;2023-12-07T11:01:52;13.37;;;11.70;;
19664;SDS011;9980;51.020;7.772;2023-12-07T11:04:22;15.17;;;11.73;;
19664;SDS011;9980;51.020;7.772;2023-12-07T11:06:52;13.83;;;11.70;;
19664;SDS011;9980;51.020;7.772;2023-12-07T11:09:28;14.63;;;11.97;;
19664;SDS011;9980;51.020;7.772;2023-12-07T11:12:09;12.23;;;10.43;;
19664;SDS011;9980;51.020;7.772;2023-12-07T11:14:46;13.97;;;11.63;;
19664;SDS011;9980;51.020;7.772;2023-12-07T11:17:14;17.33;;;12.00;;
19664;SDS011;9980;51.020;7.772;2023-12-07T11:19:46;13.57;;;11.80;;
19664;SDS011;9980;51.020;7.772;2023-12-07T11:22:13;15.37;;;12.10;;
19664;SDS011;9980;51.020;7.772;2023-12-07T11:24:51;14.73;;;12.03;;
19664;SDS011;9980;51.020;7.772;2023-12-07T11:27:29;13.33;;;11.90;;
19664;SDS011;9980;51.020;7.772;2023-12-07T11:29:58;16.37;;;12.40;;
19664;SDS011;9980;51.020;7.772;2023-12-07T11:32:27;14.23;;;11.90;;
19664;SDS011;9980;51.020;7.772;2023-12-07T11:34:54;14.67;;;11.93;;
19664;SDS011;9980;51.020;7.772;2023-12-07T11:40:38;12.47;;;11.17;;
19664;SDS011;9980;51.020;7.772;2023-12-07T11:43:16;13.90;;;11.97;;
19664;SDS011;9980;51.020;7.772;2023-12-07T11:46:05;13.17;;;11.57;;
19664;SDS011;9980;51.020;7.772;2023-12-07T11:48:33;12.30;;;11.10;;
19664;SDS011;9980;51.020;7.772;2023-12-07T11:51:01;12.73;;;10.87;;
19664;SDS011;9980;51.020;7.772;2023-12-07T11:53:34;13.00;;;11.60;;
19664;SDS011;9980;51.020;7.772;2023-12-07T11:56:04;11.40;;;10.23;;
19664;SDS011;9980;51.020;7.772;2023-12-07T11:58:37;15.53;;;11.23;;
19664;SDS011;9980;51.020;7.772;2023-12-07T12:01:07;12.73;;;10.97;;
19664;SDS011;9980;51.020;7.772;2023-12-07T12:03:35;13.43;;;10.57;;
19664;SDS011;9980;51.020;7.772;2023-12-07T12:06:05;11.27;;;10.10;;
19664;SDS011;9980;51.020;7.772;2023-12-07T12:08:34;12.27;;;10.90;;
19664;SDS011;9980;51.020;7.772;2023-12-07T12:11:01;11.40;;;10.30;;
19664;SDS011;9980;51.020;7.772;2023-12-07T12:13:28;13.83;;;10.30;;
19664;SDS011;9980;51.020;7.772;2023-12-07T12:15:59;12.17;;;10.87;;
19664;SDS011;9980;51.020;7.772;2023-12-07T12:18:32;11.43;;;10.23;;
19664;SDS011;9980;51.020;7.772;2023-12-07T12:21:00;11.97;;;10.63;;
19664;SDS011;9980;51.020;7.772;2023-12-07T12:23:28;12.13;;;10.80;;
19664;SDS011;9980;51.020;7.772;2023-12-07T12:25:55;15.67;;;10.93;;
19664;SDS011;9980;51.020;7.772;2023-12-07T12:28:24;13.00;;;11.17;;
19664;SDS011;9980;51.020;7.772;2023-12-07T12:30:51;12.33;;;11.10;;
19664;SDS011;9980;51.020;7.772;2023-12-07T12:33:19;13.43;;;10.70;;
19664;SDS011;9980;51.020;7.772;2023-12-07T12:35:46;12.63;;;10.63;;
19664;SDS011;9980;51.020;7.772;2023-12-07T12:38:25;11.87;;;10.23;;
19664;SDS011;9980;51.020;7.772;2023-12-07T12:41:04;13.93;;;10.77;;
19664;SDS011;9980;51.020;7.772;2023-12-07T12:43:31;11.40;;;10.20;;
19664;SDS011;9980;51.020;7.772;2023-12-07T12:45:58;10.87;;;9.80;;
19664;SDS011;9980;51.020;7.772;2023-12-07T12:48:32;15.03;;;10.83;;
19664;SDS011;9980;51.020;7.772;2023-12-07T12:51:12;12.43;;;11.13;;
19664;SDS011;9980;51.020;7.772;2023-12-07T12:53:46;13.60;;;11.00;;
19664;SDS011;9980;51.020;7.772;2023-12-07T12:56:17;11.43;;;10.20;;
19664;SDS011;9980;51.020;7.772;2023-12-07T12:58:49;13.53;;;10.50;;
19664;SDS011;9980;51.020;7.772;2023-12-07T13:01:17;13.67;;;11.83;;
19664;SDS011;9980;51.020;7.772;2023-12-07T13:03:46;15.47;;;12.20;;
19664;SDS011;9980;51.020;7.772;2023-12-07T13:06:14;14.83;;;12.50;;
19664;SDS011;9980;51.020;7.772;2023-12-07T13:08:47;15.00;;;13.40;;
19664;SDS011;9980;51.020;7.772;2023-12-07T13:11:15;12.17;;;10.23;;
19664;SDS011;9980;51.020;7.772;2023-12-07T13:13:43;14.30;;;12.03;;
19664;SDS011;9980;51.020;7.772;2023-12-07T13:16:11;16.17;;;13.23;;
19664;SDS011;9980;51.020;7.772;2023-12-07T13:18:38;14.87;;;12.47;;
19664;SDS011;9980;51.020;7.772;2023-12-07T13:21:06;14.60;;;12.87;;
19664;SDS011;9980;51.020;7.772;2023-12-07T13:23:33;14.73;;;11.93;;
19664;SDS011;9980;51.020;7.772;2023-12-07T13:26:00;16.23;;;12.13;;
19664;SDS011;9980;51.020;7.772;2023-12-07T13:28:26;15.43;;;12.83;;
19664;SDS011;9980;51.020;7.772;2023-12-07T13:30:53;16.23;;;12.97;;
19664;SDS011;9980;51.020;7.772;2023-12-07T13:33:21;23.80;;;18.03;;
19664;SDS011;9980;51.020;7.772;2023-12-07T13:35:55;18.03;;;14.53;;
19664;SDS011;9980;51.020;7.772;2023-12-07T13:38:22;18.97;;;14.10;;
19664;SDS011;9980;51.020;7.772;2023-12-07T13:40:50;19.07;;;15.73;;
19664;SDS011;9980;51.020;7.772;2023-12-07T13:43:17;16.30;;;13.10;;
19664;SDS011;9980;51.020;7.772;2023-12-07T13:45:44;15.80;;;13.17;;
19664;SDS011;9980;51.020;7.772;2023-12-07T13:48:12;22.23;;;15.37;;
19664;SDS011;9980;51.020;7.772;2023-12-07T13:50:40;16.77;;;13.03;;
19664;SDS011;9980;51.020;7.772;2023-12-07T13:53:07;28.63;;;22.60;;
19664;SDS011;9980;51.020;7.772;2023-12-07T13:55:37;26.73;;;18.00;;
19664;SDS011;9980;51.020;7.772;2023-12-07T13:58:07;25.97;;;20.53;;
19664;SDS011;9980;51.020;7.772;2023-12-07T14:00:34;19.23;;;14.30;;
19664;SDS011;9980;51.020;7.772;2023-12-07T14:03:01;22.50;;;16.47;;
19664;SDS011;9980;51.020;7.772;2023-12-07T14:05:27;15.63;;;12.80;;
19664;SDS011;9980;51.020;7.772;2023-12-07T14:07:55;15.57;;;13.03;;
19664;SDS011;9980;51.020;7.772;2023-12-07T14:10:22;16.13;;;13.33;;
19664;SDS011;9980;51.020;7.772;2023-12-07T14:12:49;17.30;;;14.03;;
19664;SDS011;9980;51.020;7.772;2023-12-07T14:15:17;17.37;;;14.10;;
19664;SDS011;9980;51.020;7.772;2023-12-07T14:17:55;15.70;;;12.70;;
19664;SDS011;9980;51.020;7.772;2023-12-07T14:20:23;16.47;;;14.27;;
19664;SDS011;9980;51.020;7.772;2023-12-07T14:23:13;14.17;;;12.43;;
19664;SDS011;9980;51.020;7.772;2023-12-07T14:25:41;13.70;;;11.40;;
19664;SDS011;9980;51.020;7.772;2023-12-07T14:28:12;15.43;;;12.70;;
19664;SDS011;9980;51.020;7.772;2023-12-07T14:30:39;14.63;;;12.73;;
19664;SDS011;9980;51.020;7.772;2023-12-07T14:33:06;17.13;;;13.57;;
19664;SDS011;9980;51.020;7.772;2023-12-07T14:35:33;20.67;;;16.40;;
19664;SDS011;9980;51.020;7.772;2023-12-07T14:38:00;19.63;;;16.03;;
19664;SDS011;9980;51.020;7.772;2023-12-07T14:40:27;18.50;;;15.20;;
19664;SDS011;9980;51.020;7.772;2023-12-07T14:42:54;19.20;;;14.03;;
19664;SDS011;9980;51.020;7.772;2023-12-07T14:45:21;26.40;;;19.73;;
19664;SDS011;9980;51.020;7.772;2023-12-07T14:47:48;25.70;;;19.07;;